Terminal Aerodrome Forecast
Issued by NWS Lake Charles, LA

Current Version | Previous Version | Text Only | Print | Product List | Glossary On
Versions: 1 2 3 4 5 6 7 8 9 10 11 12 13 14 15 16
000
FTUS44 KLCH 180500
TAFAEX
TAF
KAEX 180520Z 1806/1906 00000KT 6SM BR SKC
     FM180800 00000KT 4SM BR SCT005
      TEMPO 1810/1814 1SM BR BKN002
     FM181400 VRB03KT P6SM SCT025
     FM181800 05004KT P6SM VCSH SCT035=

USA.gov is the U.S. government's official web portal to all federal, state and local government web resources and services.